Latest Weather Observations for Mount Keith

IDW60801

Issued at 8:32 pm WST Thursday 3 September 2015 (issued every 30 minutes, with the page automatically refreshed every 10 minutes)

About weather observations | Map of weather stations | Latest weather observations for WA | Other Formats
Station Details ID: 512019 Name: MOUNT KEITH Lat: -27.29 Lon: 120.55 Height: 542.33 m
Data from the previous 72 hours. | See also: Recent months for locations in Western Australia
Date/Time
WST
Temp
°C
App
Temp
°C
Dew
Point
Rel
Hum
%
Delta-T
°C
Wind Press
QNH
hPa
Press
MSL
hPa
Rain
since 9 am
mm
Dir
 
Spd
km/h
Gust
km/h
Spd
kts
Gust
kts
03/08:30pm 14.6 11.0 -2.3 31 7.0 ENE 7 7 4 4 1021.3 1019.6 0.0
03/08:00pm 15.6 11.5 -2.8 28 7.6 E 9 11 5 6 1021.2 1019.5 0.0
03/07:30pm 16.3 12.2 -2.7 27 7.9 E 9 11 5 6 1021.1 1019.4 0.0
03/07:00pm 17.8 13.3 -3.0 24 8.7 ESE 11 11 6 6 1021.0 1019.3 0.0
03/06:30pm 19.6 14.8 -2.7 22 9.6 E 13 15 7 8 1020.6 1019.0 0.0
03/06:00pm 21.1 17.0 -2.7 20 10.3 ENE 9 11 5 6 1020.3 1018.7 0.0
03/05:30pm 22.7 19.0 -2.8 18 11.2 ENE 7 11 4 6 1020.0 1018.3 0.0
03/05:00pm 23.7 19.6 -2.8 17 11.7 NE 9 13 5 7 1019.7 1018.0 0.0
03/04:30pm 23.9 19.1 -2.6 17 11.8 NNE 13 20 7 11 1019.7 1018.0 0.0
03/04:00pm 24.3 19.8 -3.1 16 12.1 NE 11 17 6 9 1019.7 1018.0 0.0
03/03:30pm 24.5 21.0 -2.9 16 12.2 NNE 6 15 3 8 1019.9 1018.2 0.0
03/03:00pm 24.7 19.6 -2.0 17 12.1 NNE 15 22 8 12 1019.9 1018.2 0.0
03/02:30pm 24.1 18.6 -2.4 17 11.9 ENE 17 22 9 12 1020.0 1018.3 0.0
03/02:00pm 23.5 18.0 -2.2 18 11.5 N 17 32 9 17 1020.3 1018.7 0.0
03/01:30pm 23.8 19.8 -1.9 18 11.6 NNE 9 20 5 11 1020.4 1018.8 0.0
03/01:00pm 23.1 17.5 -2.5 18 11.3 NE 17 28 9 15 1020.7 1019.1 0.0
03/12:30pm 21.9 16.7 -2.7 19 10.8 N 15 28 8 15 1021.4 1019.7 0.0
03/12:00pm 21.7 15.8 -2.2 20 10.5 NE 19 26 10 14 1022.0 1020.4 0.0
03/11:30am 20.6 14.5 -2.5 21 10.1 NNE 20 28 11 15 1022.4 1020.8 0.0
03/11:00am 21.0 14.7 -0.9 23 9.8 NE 22 30 12 16 1022.8 1021.2 0.0
03/10:30am 19.6 12.5 -1.5 24 9.3 NE 26 35 14 19 1023.1 1021.4 0.0
03/10:00am 18.3 11.7 -0.5 28 8.3 NE 24 41 13 22 1023.3 1021.6 0.0
03/09:30am 16.2 9.3 -0.1 33 7.2 NE 26 35 14 19 1023.5 1021.9 0.0
03/09:00am 15.2 8.7 0.2 36 6.5 NE 24 35 13 19 1023.5 1021.9 0.0
03/08:30am 13.7 6.8 0.4 40 5.8 NE 26 35 14 19 1023.4 1021.7 0.0
03/08:00am 11.9 5.8 0.1 44 5.0 NE 22 35 12 19 1023.2 1021.5 0.0
03/07:30am 9.5 4.8 -1.5 46 4.4 ENE 13 19 7 10 1023.0 1021.3 0.0
03/07:00am 6.6 3.4 -3.9 47 3.8 ENE 4 7 2 4 1023.0 1021.3 0.0
03/06:30am 3.4 -0.6 -5.8 51 3.1 ENE 7 7 4 4 1022.6 1021.0 0.0
03/06:00am 3.1 -0.7 -5.5 53 2.9 ENE 6 7 3 4 1022.3 1020.7 0.0
03/05:30am 3.6 -0.2 -5.8 50 3.1 NE 6 7 3 4 1022.2 1020.6 0.0
03/05:00am 3.3 -0.5 -5.8 51 3.0 E 6 6 3 3 1021.8 1020.2 0.0
03/04:30am 3.9 -0.1 -5.8 49 3.3 E 7 9 4 5 1021.5 1019.8 0.0
03/04:00am 3.5 -0.6 -6.2 49 3.2 ENE 7 9 4 5 1021.4 1019.7 0.0
03/03:30am 3.5 -0.5 -5.4 52 3.0 NE 7 9 4 5 1021.3 1019.6 0.0
03/03:00am 3.2 -0.9 -6.2 50 3.1 ENE 7 9 4 5 1021.4 1019.7 0.0
03/02:30am 4.0 0.1 -6.6 46 3.5 ENE 6 7 3 4 1021.7 1020.0 0.0
03/02:00am 4.6 1.9 -6.3 45 3.6 CALM 0 0 0 0 1021.8 1020.2 0.0
03/01:30am 4.9 2.2 -6.3 44 3.8 CALM 0 0 0 0 1021.7 1020.0 0.0
03/01:00am 4.8 0.8 -5.8 46 3.6 ESE 7 7 4 4 1022.0 1020.4 0.0
03/12:30am 5.3 1.5 -5.9 44 3.8 ESE 6 7 3 4 1022.3 1020.7 0.0
03/12:00am 6.0 2.0 -5.6 43 4.0 ESE 7 7 4 4 1022.4 1020.8 0.0
 
Date/Time
WST
Temp
°C
App
Temp
°C
Dew
Point
Rel
Hum
%
Delta-T
°C
Wind Press
QNH
hPa
Press
MSL
hPa
Rain
since 9 am
mm
Dir
 
Spd
km/h
Gust
km/h
Spd
kts
Gust
kts
02/11:30pm 6.8 3.7 -5.8 40 4.4 SE 2 6 1 3 1022.7 1021.1 0.0
02/11:00pm 7.5 3.1 -5.9 38 4.7 SE 9 9 5 5 1023.0 1021.3 0.0
02/10:30pm 7.5 4.8 -6.2 37 4.8 CALM 0 0 0 0 1023.1 1021.4 0.0
02/10:00pm 7.9 3.5 -6.2 36 4.9 ESE 9 9 5 5 1023.1 1021.4 0.0
02/09:30pm 8.6 4.2 -6.0 35 5.2 ESE 9 9 5 5 1023.3 1021.6 0.0
02/09:00pm 8.9 4.9 -5.7 35 5.2 SE 7 9 4 5 1023.2 1021.5 0.0
02/08:30pm 10.0 6.0 -5.5 33 5.7 SE 7 9 4 5 1023.0 1021.3 0.0
02/08:00pm 10.9 6.5 -5.5 31 6.0 SE 9 9 5 5 1022.7 1021.1 0.0
02/07:30pm 11.8 7.5 -5.2 30 6.4 SSE 9 9 5 5 1022.3 1020.7 0.0
02/07:00pm 12.7 8.4 -5.3 28 6.8 SE 9 9 5 5 1021.9 1020.3 0.0
02/06:30pm 13.3 9.0 -5.3 27 7.1 ESE 9 11 5 6 1021.4 1019.7 0.0
02/06:00pm 14.8 10.4 -5.5 24 7.8 E 9 13 5 7 1020.8 1019.2 0.0
02/05:30pm 16.1 11.0 -5.6 22 8.5 E 13 20 7 11 1020.8 1019.2 0.0
02/05:00pm 16.9 11.8 -5.5 21 8.8 ESE 13 19 7 10 1020.7 1019.1 0.0
02/04:30pm 17.1 11.2 -5.4 21 8.9 E 17 35 9 19 1020.8 1019.2 0.0
02/04:00pm 16.7 10.8 -5.7 21 8.8 E 17 22 9 12 1020.8 1019.2 0.0
02/03:30pm 16.7 11.6 -5.1 22 8.7 ENE 13 19 7 10 1020.8 1019.2 0.0
02/03:00pm 16.9 11.8 -4.9 22 8.7 E 13 24 7 13 1021.0 1019.3 0.0
02/02:30pm 16.8 10.4 -5.0 22 8.7 NE 20 30 11 16 1021.0 1019.3 0.0
02/02:00pm 16.0 11.0 -4.5 24 8.2 ENE 13 22 7 12 1021.1 1019.4 0.0
02/01:30pm 15.8 10.8 -4.2 25 8.0 E 13 24 7 13 1021.3 1019.6 0.0
02/01:00pm 14.9 9.9 -3.9 27 7.5 E 13 22 7 12 1021.8 1020.2 0.0
02/12:30pm 15.2 9.9 -3.2 28 7.5 E 15 24 8 13 1022.5 1020.9 0.0
02/12:00pm 14.1 8.4 -4.1 28 7.2 ESE 17 28 9 15 1022.8 1021.2 0.0
02/11:30am 13.9 8.2 -3.4 30 6.9 NE 17 30 9 16 1023.3 1021.6 0.0
02/11:00am 12.6 6.6 -3.2 33 6.2 E 19 30 10 16 1023.7 1022.1 0.0
02/10:30am 12.4 6.2 -3.4 33 6.2 E 20 30 11 16 1024.1 1022.5 0.0
02/10:00am 11.5 4.9 -3.4 35 5.8 E 22 32 12 17 1024.4 1022.8 0.0
02/09:30am 10.4 4.0 -1.9 42 4.9 E 22 32 12 17 1024.5 1022.9 0.0
02/09:00am 9.8 3.5 -1.0 47 4.4 ESE 22 28 12 15 1024.5 1022.9 0.2
02/08:30am 8.9 2.3 -0.4 52 3.8 ESE 24 32 13 17 1024.4 1022.8 0.2
02/08:00am 7.8 0.8 -0.2 57 3.2 ESE 26 35 14 19 1024.1 1022.5 0.2
02/07:30am 6.6 0.9 -0.8 59 2.9 ESE 19 28 10 15 1023.6 1022.0 0.0
02/07:00am 5.2 0.5 -1.7 61 2.6 ESE 13 20 7 11 1023.4 1021.7 0.0
02/06:30am 3.8 -0.2 -2.4 64 2.3 SE 9 11 5 6 1023.2 1021.5 0.0
02/06:00am 3.5 -0.6 -2.7 64 2.2 SE 9 13 5 7 1022.7 1021.1 0.0
02/05:30am 3.9 -0.9 -2.7 62 2.4 ESE 13 15 7 8 1022.6 1021.0 0.0
02/05:00am 4.4 -0.1 -2.9 59 2.6 SE 11 17 6 9 1022.4 1020.8 0.0
02/04:30am 4.9 -0.3 -2.9 57 2.9 SE 15 19 8 10 1022.2 1020.6 0.0
02/04:00am 5.2 0.3 -3.1 55 3.0 SE 13 17 7 9 1022.3 1020.7 0.0
02/03:30am 5.6 -0.1 -3.5 52 3.3 SSE 17 20 9 11 1022.2 1020.6 0.0
02/03:00am 5.9 0.3 -3.2 52 3.3 SSE 17 20 9 11 1022.2 1020.6 0.0
02/02:30am 5.2 0.6 -4.1 51 3.3 SSE 11 13 6 7 1022.3 1020.7 0.0
02/02:00am 5.7 1.1 -3.9 50 3.4 SSE 11 13 6 7 1022.4 1020.8 0.0
02/01:30am 6.3 1.3 -3.9 48 3.7 SSE 13 15 7 8 1022.5 1020.9 0.0
02/01:00am 6.8 1.8 -4.0 46 3.9 SSE 13 19 7 10 1022.4 1020.8 0.0
02/12:30am 7.6 1.9 -3.9 44 4.2 SSE 17 22 9 12 1022.3 1020.7 0.0
02/12:00am 8.4 2.1 -3.7 42 4.5 SSE 20 30 11 16 1022.3 1020.7 0.0
 
Date/Time
WST
Temp
°C
App
Temp
°C
Dew
Point
Rel
Hum
%
Delta-T
°C
Wind Press
QNH
hPa
Press
MSL
hPa
Rain
since 9 am
mm
Dir
 
Spd
km/h
Gust
km/h
Spd
kts
Gust
kts
01/11:30pm 9.0 2.7 -4.2 39 4.9 SSE 20 28 11 15 1022.3 1020.7 0.0
01/11:00pm 8.6 3.5 -4.9 38 4.9 S 13 17 7 9 1022.3 1020.7 0.0
01/10:30pm 9.1 3.7 -4.8 37 5.1 S 15 20 8 11 1022.3 1020.7 0.0
01/10:00pm 9.6 4.6 -4.7 36 5.3 S 13 19 7 10 1022.2 1020.6 0.0
01/09:30pm 10.1 4.3 -4.6 35 5.5 S 17 22 9 12 1021.9 1020.3 0.0
01/09:00pm 10.5 5.5 -4.7 34 5.7 S 13 20 7 11 1021.8 1020.2 0.0
01/08:30pm 10.8 5.4 -4.4 34 5.8 S 15 20 8 11 1021.7 1020.0 0.0
01/08:00pm 11.0 5.6 -4.6 33 5.9 S 15 19 8 10 1021.5 1019.8 0.0
01/07:30pm 11.5 5.7 -4.2 33 6.0 S 17 22 9 12 1021.1 1019.4 0.0
01/07:00pm 11.9 6.1 -4.2 32 6.2 S 17 24 9 13 1020.5 1018.9 0.0
01/06:30pm 12.4 6.7 -3.8 32 6.3 SSW 17 20 9 11 1020.0 1018.3 0.0
01/06:00pm 13.1 7.0 -4.1 30 6.7 SSW 19 28 10 15 1019.6 1017.9 0.0
01/05:30pm 13.8 7.1 -3.9 29 7.0 SSW 22 30 12 16 1019.1 1017.4 0.0
01/05:00pm 14.6 7.3 -3.2 29 7.2 SW 26 33 14 18 1018.6 1017.0 0.0
01/04:30pm 14.6 8.1 -2.8 30 7.1 SW 22 32 12 17 1018.3 1016.6 0.0
01/04:00pm 15.0 7.8 -2.0 31 7.1 SW 26 37 14 20 1018.1 1016.4 0.0
01/03:30pm 15.2 7.7 -1.4 32 7.0 SW 28 39 15 21 1018.2 1016.5 0.0
01/03:00pm 14.9 7.8 -1.6 32 6.9 SW 26 35 14 19 1018.1 1016.4 0.0
01/02:30pm 14.5 7.0 -1.2 34 6.6 SW 28 39 15 21 1018.2 1016.5 0.0
01/02:00pm 14.8 7.8 -0.5 35 6.6 WSW 26 37 14 20 1018.1 1016.4 0.0
01/01:30pm 13.7 5.9 -0.7 37 6.1 WSW 30 43 16 23 1018.4 1016.7 0.0
01/01:00pm 13.8 6.0 -1.0 36 6.2 SW 30 43 16 23 1018.5 1016.8 0.0
01/12:30pm 13.5 6.1 -0.9 37 6.1 SW 28 37 15 20 1018.7 1017.1 0.0
01/12:00pm 13.4 6.1 0.1 40 5.7 SW 28 39 15 21 1019.2 1017.5 0.0
01/11:30am 12.0 4.3 0.1 44 5.1 SSW 30 46 16 25 1019.7 1018.0 0.0
01/11:00am 11.8 4.3 0.9 47 4.7 SW 30 43 16 23 1019.9 1018.2 0.0
01/10:30am 11.6 3.6 0.7 47 4.7 SW 32 43 17 23 1020.1 1018.4 0.0
01/10:00am 12.1 4.3 1.7 49 4.6 SW 32 43 17 23 1020.0 1018.3 0.0
01/09:30am 11.7 3.7 1.4 49 4.5 SSW 33 46 18 25 1019.8 1018.1 0.0
01/09:00am 11.5 3.6 2.5 54 4.0 SW 33 44 18 24 1019.7 1018.0 0.0
01/08:30am 11.5 4.4 3.8 59 3.5 SW 30 41 16 22 1019.5 1017.8 0.0
01/08:00am 10.6 3.2 4.1 64 3.0 SW 32 44 17 24 1019.3 1017.6 0.0
01/07:30am 10.3 3.4 4.7 68 2.6 SW 30 41 16 22 1018.8 1018.0 0.0
01/07:00am 9.5 4.6 5.1 74 2.0 SW 20 28 11 15 1018.4 1017.6 0.0
01/06:30am 8.7 4.3 4.7 76 1.8 SW 17 24 9 13 1018.1 1017.2 0.0
01/06:00am 8.9 4.1 4.9 76 1.8 SW 19 28 10 15 1017.8 1016.9 0.0
01/05:30am 9.2 4.2 4.8 74 2.0 SW 20 28 11 15 1017.4 1016.5 0.0
01/05:00am 9.3 4.4 4.3 71 2.3 SW 19 24 10 13 1017.1 1016.2 0.0
01/04:30am 9.9 5.0 4.1 67 2.6 SW 19 24 10 13 1016.9 1016.1 0.0
01/04:00am 10.3 5.3 3.8 64 3.0 WSW 19 24 10 13 1016.7 1015.9 0.0
01/03:30am 10.6 5.6 3.4 61 3.3 SW 19 24 10 13 1016.6 1015.7 0.0
01/03:00am 11.0 6.0 3.5 60 3.4 SW 19 24 10 13 1016.5 1015.6 0.0
01/02:30am 11.5 6.3 3.3 57 3.7 SW 20 28 11 15 1016.5 1015.6 0.0
01/02:00am 11.8 6.5 2.8 54 4.0 SW 20 26 11 14 1016.6 1015.7 0.0
01/01:30am 12.3 6.9 2.5 51 4.4 SW 20 28 11 15 1016.8 1016.0 0.0
01/01:00am 12.5 7.3 2.4 50 4.5 SW 19 24 10 13 1016.9 1016.1 0.0
01/12:30am 13.0 8.1 2.3 48 4.8 SW 17 24 9 13 1017.1 1016.2 0.0
01/12:00am 13.5 8.2 2.1 46 5.1 SW 19 24 10 13 1017.2 1016.3 0.0
 
Date/Time
WST
Temp
°C
App
Temp
°C
Dew
Point
Rel
Hum
%
Delta-T
°C
Wind Press
QNH
hPa
Press
MSL
hPa
Rain
since 9 am
mm
Dir
 
Spd
km/h
Gust
km/h
Spd
kts
Gust
kts
31/11:30pm 14.0 8.5 2.0 44 5.4 SW 20 28 11 15 1017.2 1016.3 0.0
31/11:00pm 14.4 8.9 1.7 42 5.7 SW 20 26 11 14 1017.2 1016.3 0.0
31/10:30pm 14.9 9.4 1.8 41 5.9 SW 20 26 11 14 1017.2 1016.3 0.0
31/10:00pm 15.6 9.8 2.4 41 6.1 SW 22 32 12 17 1017.3 1016.4 0.0
31/09:30pm 16.1 11.0 2.9 41 6.2 SW 19 28 10 15 1017.1 1016.2 0.0
31/09:00pm 16.7 11.6 3.0 40 6.4 WSW 19 24 10 13 1017.1 1016.2 0.0

Other Formats:

Comma delimited format used in spreadsheet applications
http://www.bom.gov.au/fwo/IDW60801/IDW60801.99434.axf

JavaScript Object Notation format (JSON) in row-major order
http://www.bom.gov.au/fwo/IDW60801/IDW60801.99434.json